sensor_id;sensor_type;location;lat;lon;timestamp;temperature;humidity
16172;DHT22;8192;53.596;10.166;2023-03-23T00:01:10;10.20;99.90
16172;DHT22;8192;53.596;10.166;2023-03-23T00:03:38;10.20;99.90
16172;DHT22;8192;53.596;10.166;2023-03-23T00:06:06;10.30;99.90
16172;DHT22;8192;53.596;10.166;2023-03-23T00:08:34;10.30;99.90
16172;DHT22;8192;53.596;10.166;2023-03-23T00:11:11;10.20;99.90
16172;DHT22;8192;53.596;10.166;2023-03-23T00:13:40;10.20;99.90
16172;DHT22;8192;53.596;10.166;2023-03-23T00:16:08;10.10;99.90
16172;DHT22;8192;53.596;10.166;2023-03-23T00:18:43;10.10;99.90
16172;DHT22;8192;53.596;10.166;2023-03-23T00:21:10;10.00;99.90
16172;DHT22;8192;53.596;10.166;2023-03-23T00:23:38;10.00;99.90
16172;DHT22;8192;53.596;10.166;2023-03-23T00:26:05;10.00;99.90
16172;DHT22;8192;53.596;10.166;2023-03-23T00:28:34;10.00;99.90
16172;DHT22;8192;53.596;10.166;2023-03-23T00:31:09;9.90;99.90
16172;DHT22;8192;53.596;10.166;2023-03-23T00:33:37;9.90;99.90
16172;DHT22;8192;53.596;10.166;2023-03-23T00:36:06;9.90;99.90
16172;DHT22;8192;53.596;10.166;2023-03-23T00:38:35;9.80;99.90
16172;DHT22;8192;53.596;10.166;2023-03-23T00:41:02;9.80;99.90
16172;DHT22;8192;53.596;10.166;2023-03-23T00:43:30;9.80;99.90
16172;DHT22;8192;53.596;10.166;2023-03-23T00:45:59;9.80;99.90
16172;DHT22;8192;53.596;10.166;2023-03-23T00:48:28;9.80;99.90
16172;DHT22;8192;53.596;10.166;2023-03-23T00:50:58;9.80;99.90
16172;DHT22;8192;53.596;10.166;2023-03-23T00:53:26;9.70;99.90
16172;DHT22;8192;53.596;10.166;2023-03-23T00:55:53;9.70;99.90
16172;DHT22;8192;53.596;10.166;2023-03-23T00:58:20;9.70;99.90
16172;DHT22;8192;53.596;10.166;2023-03-23T01:00:47;9.70;99.90
16172;DHT22;8192;53.596;10.166;2023-03-23T01:03:16;9.60;99.90
16172;DHT22;8192;53.596;10.166;2023-03-23T01:05:45;9.70;99.90
16172;DHT22;8192;53.596;10.166;2023-03-23T01:08:13;9.60;99.90
16172;DHT22;8192;53.596;10.166;2023-03-23T01:10:40;9.60;99.90
16172;DHT22;8192;53.596;10.166;2023-03-23T01:13:07;9.60;99.90
16172;DHT22;8192;53.596;10.166;2023-03-23T01:15:34;9.60;99.90
16172;DHT22;8192;53.596;10.166;2023-03-23T01:18:09;9.60;99.90
16172;DHT22;8192;53.596;10.166;2023-03-23T01:20:37;9.50;99.90
16172;DHT22;8192;53.596;10.166;2023-03-23T01:23:04;9.60;99.90
16172;DHT22;8192;53.596;10.166;2023-03-23T01:25:35;9.60;99.90
16172;DHT22;8192;53.596;10.166;2023-03-23T01:28:03;9.60;99.90
16172;DHT22;8192;53.596;10.166;2023-03-23T01:30:30;9.60;99.90
16172;DHT22;8192;53.596;10.166;2023-03-23T01:32:57;9.60;99.90
16172;DHT22;8192;53.596;10.166;2023-03-23T01:35:24;9.50;99.90
16172;DHT22;8192;53.596;10.166;2023-03-23T01:37:54;9.70;99.90
16172;DHT22;8192;53.596;10.166;2023-03-23T01:40:21;9.50;99.90
16172;DHT22;8192;53.596;10.166;2023-03-23T01:42:48;9.60;99.90
16172;DHT22;8192;53.596;10.166;2023-03-23T01:45:29;9.50;99.90
16172;DHT22;8192;53.596;10.166;2023-03-23T01:48:10;9.50;99.90
16172;DHT22;8192;53.596;10.166;2023-03-23T01:50:47;9.50;99.90
16172;DHT22;8192;53.596;10.166;2023-03-23T01:53:18;9.50;99.90
16172;DHT22;8192;53.596;10.166;2023-03-23T01:55:49;9.50;99.90
16172;DHT22;8192;53.596;10.166;2023-03-23T01:58:19;9.50;99.90
16172;DHT22;8192;53.596;10.166;2023-03-23T02:00:51;9.50;99.90
16172;DHT22;8192;53.596;10.166;2023-03-23T02:03:20;9.50;99.90
16172;DHT22;8192;53.596;10.166;2023-03-23T02:05:49;9.50;99.90
16172;DHT22;8192;53.596;10.166;2023-03-23T02:08:18;9.50;99.90
16172;DHT22;8192;53.596;10.166;2023-03-23T02:10:45;9.50;99.90
16172;DHT22;8192;53.596;10.166;2023-03-23T02:13:12;9.50;99.90
16172;DHT22;8192;53.596;10.166;2023-03-23T02:15:45;9.50;99.90
16172;DHT22;8192;53.596;10.166;2023-03-23T02:18:37;9.60;99.90
16172;DHT22;8192;53.596;10.166;2023-03-23T02:22:00;9.50;99.90
16172;DHT22;8192;53.596;10.166;2023-03-23T02:24:51;9.50;99.90
16172;DHT22;8192;53.596;10.166;2023-03-23T02:27:35;9.60;99.90
16172;DHT22;8192;53.596;10.166;2023-03-23T02:30:20;9.60;99.90
16172;DHT22;8192;53.596;10.166;2023-03-23T02:33:20;9.60;99.90
16172;DHT22;8192;53.596;10.166;2023-03-23T02:35:56;9.60;99.90
16172;DHT22;8192;53.596;10.166;2023-03-23T02:38:28;9.60;99.90
16172;DHT22;8192;53.596;10.166;2023-03-23T02:41:00;9.60;99.90
16172;DHT22;8192;53.596;10.166;2023-03-23T02:43:36;9.60;99.90
16172;DHT22;8192;53.596;10.166;2023-03-23T02:46:07;9.60;99.90
16172;DHT22;8192;53.596;10.166;2023-03-23T02:48:38;9.60;99.90
16172;DHT22;8192;53.596;10.166;2023-03-23T02:51:07;9.70;99.90
16172;DHT22;8192;53.596;10.166;2023-03-23T02:53:39;9.60;99.90
16172;DHT22;8192;53.596;10.166;2023-03-23T02:56:08;9.70;99.90
16172;DHT22;8192;53.596;10.166;2023-03-23T02:58:36;9.70;99.90
16172;DHT22;8192;53.596;10.166;2023-03-23T03:04:01;9.60;99.90
16172;DHT22;8192;53.596;10.166;2023-03-23T03:06:34;9.70;99.90
16172;DHT22;8192;53.596;10.166;2023-03-23T03:09:05;9.70;99.90
16172;DHT22;8192;53.596;10.166;2023-03-23T03:11:35;9.70;99.90
16172;DHT22;8192;53.596;10.166;2023-03-23T03:14:06;9.80;99.90
16172;DHT22;8192;53.596;10.166;2023-03-23T03:16:40;9.70;99.90
16172;DHT22;8192;53.596;10.166;2023-03-23T03:19:12;9.70;99.90
16172;DHT22;8192;53.596;10.166;2023-03-23T03:21:43;9.70;99.90
16172;DHT22;8192;53.596;10.166;2023-03-23T03:24:14;9.70;99.90
16172;DHT22;8192;53.596;10.166;2023-03-23T03:26:45;9.70;99.90
16172;DHT22;8192;53.596;10.166;2023-03-23T03:29:15;9.70;99.90
16172;DHT22;8192;53.596;10.166;2023-03-23T03:31:44;9.70;99.90
16172;DHT22;8192;53.596;10.166;2023-03-23T03:34:15;9.70;99.90
16172;DHT22;8192;53.596;10.166;2023-03-23T03:36:44;9.70;99.90
16172;DHT22;8192;53.596;10.166;2023-03-23T03:39:13;9.80;99.90
16172;DHT22;8192;53.596;10.166;2023-03-23T03:41:43;9.60;99.90
16172;DHT22;8192;53.596;10.166;2023-03-23T03:44:11;9.60;99.90
16172;DHT22;8192;53.596;10.166;2023-03-23T03:46:38;9.60;99.90
16172;DHT22;8192;53.596;10.166;2023-03-23T03:49:07;9.60;99.90
16172;DHT22;8192;53.596;10.166;2023-03-23T03:51:37;9.60;99.90
16172;DHT22;8192;53.596;10.166;2023-03-23T03:54:05;9.60;99.90
16172;DHT22;8192;53.596;10.166;2023-03-23T03:56:33;9.60;99.90
16172;DHT22;8192;53.596;10.166;2023-03-23T03:59:01;9.70;99.90
16172;DHT22;8192;53.596;10.166;2023-03-23T04:01:28;9.70;99.90
16172;DHT22;8192;53.596;10.166;2023-03-23T04:03:56;9.70;99.90
16172;DHT22;8192;53.596;10.166;2023-03-23T04:06:23;9.70;99.90
16172;DHT22;8192;53.596;10.166;2023-03-23T04:08:54;9.80;99.90
16172;DHT22;8192;53.596;10.166;2023-03-23T04:11:21;9.80;99.90
16172;DHT22;8192;53.596;10.166;2023-03-23T04:13:48;9.80;99.90
16172;DHT22;8192;53.596;10.166;2023-03-23T04:16:16;9.80;99.90
16172;DHT22;8192;53.596;10.166;2023-03-23T04:18:43;9.80;99.90
16172;DHT22;8192;53.596;10.166;2023-03-23T04:21:13;9.80;99.90
16172;DHT22;8192;53.596;10.166;2023-03-23T04:23:41;9.80;99.90
16172;DHT22;8192;53.596;10.166;2023-03-23T04:26:10;9.80;99.90
16172;DHT22;8192;53.596;10.166;2023-03-23T04:28:38;9.80;99.90
16172;DHT22;8192;53.596;10.166;2023-03-23T04:31:06;9.80;99.90
16172;DHT22;8192;53.596;10.166;2023-03-23T04:33:34;9.80;99.90
16172;DHT22;8192;53.596;10.166;2023-03-23T04:36:03;9.90;99.90
16172;DHT22;8192;53.596;10.166;2023-03-23T04:38:32;9.80;99.90
16172;DHT22;8192;53.596;10.166;2023-03-23T04:41:00;9.80;99.90
16172;DHT22;8192;53.596;10.166;2023-03-23T04:43:29;9.80;99.90
16172;DHT22;8192;53.596;10.166;2023-03-23T04:45:58;9.70;99.90
16172;DHT22;8192;53.596;10.166;2023-03-23T04:48:29;9.80;99.90
16172;DHT22;8192;53.596;10.166;2023-03-23T04:50:58;9.70;99.90
16172;DHT22;8192;53.596;10.166;2023-03-23T04:53:28;9.70;99.90
16172;DHT22;8192;53.596;10.166;2023-03-23T04:55:55;9.60;99.90
16172;DHT22;8192;53.596;10.166;2023-03-23T04:58:23;9.60;99.90
16172;DHT22;8192;53.596;10.166;2023-03-23T05:00:52;9.60;99.90
16172;DHT22;8192;53.596;10.166;2023-03-23T05:03:19;9.60;99.90
16172;DHT22;8192;53.596;10.166;2023-03-23T05:05:47;9.60;99.90
16172;DHT22;8192;53.596;10.166;2023-03-23T05:08:18;9.70;99.90
16172;DHT22;8192;53.596;10.166;2023-03-23T05:10:50;9.70;99.90
16172;DHT22;8192;53.596;10.166;2023-03-23T05:13:18;9.70;99.90
16172;DHT22;8192;53.596;10.166;2023-03-23T05:15:45;9.80;99.90
16172;DHT22;8192;53.596;10.166;2023-03-23T05:18:15;9.80;99.90
16172;DHT22;8192;53.596;10.166;2023-03-23T05:20:42;9.80;99.90
16172;DHT22;8192;53.596;10.166;2023-03-23T05:23:11;9.80;99.90
16172;DHT22;8192;53.596;10.166;2023-03-23T05:25:40;9.80;99.90
16172;DHT22;8192;53.596;10.166;2023-03-23T05:28:07;9.90;99.90
16172;DHT22;8192;53.596;10.166;2023-03-23T05:30:34;10.00;99.90
16172;DHT22;8192;53.596;10.166;2023-03-23T05:33:01;10.00;99.90
16172;DHT22;8192;53.596;10.166;2023-03-23T05:35:31;9.90;99.90
16172;DHT22;8192;53.596;10.166;2023-03-23T05:37:58;10.00;99.90
16172;DHT22;8192;53.596;10.166;2023-03-23T05:40:25;10.10;99.90
16172;DHT22;8192;53.596;10.166;2023-03-23T05:42:54;10.10;99.90
16172;DHT22;8192;53.596;10.166;2023-03-23T05:45:24;10.30;99.90
16172;DHT22;8192;53.596;10.166;2023-03-23T05:47:52;10.30;99.90
16172;DHT22;8192;53.596;10.166;2023-03-23T05:50:19;10.30;99.90
16172;DHT22;8192;53.596;10.166;2023-03-23T05:52:48;10.30;99.90
16172;DHT22;8192;53.596;10.166;2023-03-23T05:55:16;10.30;99.90
16172;DHT22;8192;53.596;10.166;2023-03-23T05:57:43;10.20;99.90
16172;DHT22;8192;53.596;10.166;2023-03-23T06:00:11;10.30;99.90
16172;DHT22;8192;53.596;10.166;2023-03-23T06:02:46;10.30;99.90
16172;DHT22;8192;53.596;10.166;2023-03-23T06:05:14;10.20;99.90
16172;DHT22;8192;53.596;10.166;2023-03-23T06:07:41;10.20;99.90
16172;DHT22;8192;53.596;10.166;2023-03-23T06:10:10;10.10;99.90
16172;DHT22;8192;53.596;10.166;2023-03-23T06:12:38;10.00;99.90
16172;DHT22;8192;53.596;10.166;2023-03-23T06:15:07;10.00;99.90
16172;DHT22;8192;53.596;10.166;2023-03-23T06:17:35;10.00;99.90
16172;DHT22;8192;53.596;10.166;2023-03-23T06:20:03;10.10;99.90
16172;DHT22;8192;53.596;10.166;2023-03-23T06:22:35;10.10;99.90
16172;DHT22;8192;53.596;10.166;2023-03-23T06:25:04;10.10;99.90
16172;DHT22;8192;53.596;10.166;2023-03-23T06:27:33;10.00;99.90
16172;DHT22;8192;53.596;10.166;2023-03-23T06:30:01;10.10;99.90
16172;DHT22;8192;53.596;10.166;2023-03-23T06:32:30;10.10;99.90
16172;DHT22;8192;53.596;10.166;2023-03-23T06:34:57;10.10;99.90
16172;DHT22;8192;53.596;10.166;2023-03-23T06:37:24;10.10;99.90
16172;DHT22;8192;53.596;10.166;2023-03-23T06:39:52;10.10;99.90
16172;DHT22;8192;53.596;10.166;2023-03-23T06:42:19;10.20;99.90
16172;DHT22;8192;53.596;10.166;2023-03-23T06:44:48;10.20;99.90
16172;DHT22;8192;53.596;10.166;2023-03-23T06:47:15;10.20;99.90
16172;DHT22;8192;53.596;10.166;2023-03-23T06:49:42;10.30;99.90
16172;DHT22;8192;53.596;10.166;2023-03-23T06:52:09;10.50;99.90
16172;DHT22;8192;53.596;10.166;2023-03-23T06:54:36;10.60;99.90
16172;DHT22;8192;53.596;10.166;2023-03-23T06:57:03;10.70;99.90
16172;DHT22;8192;53.596;10.166;2023-03-23T06:59:30;10.70;99.90
16172;DHT22;8192;53.596;10.166;2023-03-23T07:01:59;10.60;99.90
16172;DHT22;8192;53.596;10.166;2023-03-23T07:07:45;10.70;99.90
16172;DHT22;8192;53.596;10.166;2023-03-23T07:13:09;10.90;99.90
16172;DHT22;8192;53.596;10.166;2023-03-23T07:15:38;11.00;99.90
16172;DHT22;8192;53.596;10.166;2023-03-23T07:18:06;11.10;99.90
16172;DHT22;8192;53.596;10.166;2023-03-23T07:20:33;11.20;99.90
16172;DHT22;8192;53.596;10.166;2023-03-23T07:23:01;11.30;99.90
16172;DHT22;8192;53.596;10.166;2023-03-23T07:25:30;11.30;99.90
16172;DHT22;8192;53.596;10.166;2023-03-23T07:31:19;11.80;99.90
16172;DHT22;8192;53.596;10.166;2023-03-23T07:33:49;11.80;99.90
16172;DHT22;8192;53.596;10.166;2023-03-23T07:36:16;11.80;99.90
16172;DHT22;8192;53.596;10.166;2023-03-23T07:38:43;11.60;99.90
16172;DHT22;8192;53.596;10.166;2023-03-23T07:41:13;11.70;99.90
16172;DHT22;8192;53.596;10.166;2023-03-23T07:43:40;11.70;99.90
16172;DHT22;8192;53.596;10.166;2023-03-23T07:46:08;11.70;99.90
16172;DHT22;8192;53.596;10.166;2023-03-23T07:48:37;11.80;99.90
16172;DHT22;8192;53.596;10.166;2023-03-23T07:51:08;11.80;99.90
16172;DHT22;8192;53.596;10.166;2023-03-23T07:53:35;12.00;99.90
16172;DHT22;8192;53.596;10.166;2023-03-23T07:59:27;12.10;99.90
16172;DHT22;8192;53.596;10.166;2023-03-23T08:01:54;12.10;99.90
16172;DHT22;8192;53.596;10.166;2023-03-23T08:04:23;12.00;99.90
16172;DHT22;8192;53.596;10.166;2023-03-23T08:06:52;11.90;99.90
16172;DHT22;8192;53.596;10.166;2023-03-23T08:09:19;11.70;99.90
16172;DHT22;8192;53.596;10.166;2023-03-23T08:15:11;11.90;99.90
16172;DHT22;8192;53.596;10.166;2023-03-23T08:17:40;12.10;99.90
16172;DHT22;8192;53.596;10.166;2023-03-23T08:20:09;12.10;99.90
16172;DHT22;8192;53.596;10.166;2023-03-23T08:22:41;11.90;99.90
16172;DHT22;8192;53.596;10.166;2023-03-23T08:25:10;11.80;99.90
16172;DHT22;8192;53.596;10.166;2023-03-23T08:27:38;11.70;99.90
16172;DHT22;8192;53.596;10.166;2023-03-23T08:30:16;11.70;99.90
16172;DHT22;8192;53.596;10.166;2023-03-23T08:32:48;11.70;99.90
16172;DHT22;8192;53.596;10.166;2023-03-23T08:35:19;11.60;99.90
16172;DHT22;8192;53.596;10.166;2023-03-23T08:37:48;11.60;99.90
16172;DHT22;8192;53.596;10.166;2023-03-23T08:40:17;11.50;99.90
16172;DHT22;8192;53.596;10.166;2023-03-23T08:42:46;11.40;99.90
16172;DHT22;8192;53.596;10.166;2023-03-23T08:45:17;11.10;99.90
16172;DHT22;8192;53.596;10.166;2023-03-23T08:47:45;11.00;99.90
16172;DHT22;8192;53.596;10.166;2023-03-23T08:50:17;11.10;99.90
16172;DHT22;8192;53.596;10.166;2023-03-23T08:52:45;10.90;99.90
16172;DHT22;8192;53.596;10.166;2023-03-23T08:55:14;10.90;99.90
16172;DHT22;8192;53.596;10.166;2023-03-23T08:57:43;10.80;99.90
16172;DHT22;8192;53.596;10.166;2023-03-23T09:00:13;11.50;99.90
16172;DHT22;8192;53.596;10.166;2023-03-23T09:02:42;11.00;99.90
16172;DHT22;8192;53.596;10.166;2023-03-23T09:05:11;11.20;99.90
16172;DHT22;8192;53.596;10.166;2023-03-23T09:11:02;11.80;99.90
16172;DHT22;8192;53.596;10.166;2023-03-23T09:13:30;12.10;99.90
16172;DHT22;8192;53.596;10.166;2023-03-23T09:15:59;12.30;99.90
16172;DHT22;8192;53.596;10.166;2023-03-23T09:18:26;12.60;99.90
16172;DHT22;8192;53.596;10.166;2023-03-23T09:24:15;12.70;99.90
16172;DHT22;8192;53.596;10.166;2023-03-23T09:26:43;12.40;99.90
16172;DHT22;8192;53.596;10.166;2023-03-23T09:29:11;12.20;99.90
16172;DHT22;8192;53.596;10.166;2023-03-23T09:31:38;12.10;99.90
16172;DHT22;8192;53.596;10.166;2023-03-23T09:34:07;12.00;99.90
16172;DHT22;8192;53.596;10.166;2023-03-23T09:36:35;12.00;99.90
16172;DHT22;8192;53.596;10.166;2023-03-23T09:39:04;12.10;99.90
16172;DHT22;8192;53.596;10.166;2023-03-23T09:41:59;12.20;99.90
16172;DHT22;8192;53.596;10.166;2023-03-23T09:44:36;12.20;99.90
16172;DHT22;8192;53.596;10.166;2023-03-23T09:50:30;12.00;99.90
16172;DHT22;8192;53.596;10.166;2023-03-23T09:53:00;12.00;99.90
16172;DHT22;8192;53.596;10.166;2023-03-23T09:55:29;12.10;99.90
16172;DHT22;8192;53.596;10.166;2023-03-23T09:58:01;12.20;99.90
16172;DHT22;8192;53.596;10.166;2023-03-23T10:00:31;12.20;99.90
16172;DHT22;8192;53.596;10.166;2023-03-23T10:03:05;12.30;99.90
16172;DHT22;8192;53.596;10.166;2023-03-23T10:05:34;12.40;99.90
16172;DHT22;8192;53.596;10.166;2023-03-23T10:08:08;12.70;99.90
16172;DHT22;8192;53.596;10.166;2023-03-23T10:10:45;12.70;99.90
16172;DHT22;8192;53.596;10.166;2023-03-23T10:13:24;13.00;99.90
16172;DHT22;8192;53.596;10.166;2023-03-23T10:15:52;13.00;99.90
16172;DHT22;8192;53.596;10.166;2023-03-23T10:18:26;12.90;99.90
16172;DHT22;8192;53.596;10.166;2023-03-23T10:20:58;12.70;99.90
16172;DHT22;8192;53.596;10.166;2023-03-23T10:23:42;12.60;99.90
16172;DHT22;8192;53.596;10.166;2023-03-23T10:26:19;12.70;99.90
16172;DHT22;8192;53.596;10.166;2023-03-23T10:32:03;13.00;99.90
16172;DHT22;8192;53.596;10.166;2023-03-23T10:34:34;13.20;99.90
16172;DHT22;8192;53.596;10.166;2023-03-23T10:40:27;13.30;99.90
16172;DHT22;8192;53.596;10.166;2023-03-23T10:42:57;13.20;99.90
16172;DHT22;8192;53.596;10.166;2023-03-23T10:45:26;13.10;99.90
16172;DHT22;8192;53.596;10.166;2023-03-23T10:48:07;12.90;99.90
16172;DHT22;8192;53.596;10.166;2023-03-23T10:50:38;12.90;99.90
16172;DHT22;8192;53.596;10.166;2023-03-23T10:53:13;12.80;99.90
16172;DHT22;8192;53.596;10.166;2023-03-23T10:55:42;12.80;99.90
16172;DHT22;8192;53.596;10.166;2023-03-23T10:58:12;12.80;99.90
16172;DHT22;8192;53.596;10.166;2023-03-23T11:00:42;12.70;99.90
16172;DHT22;8192;53.596;10.166;2023-03-23T11:03:27;12.70;99.90
16172;DHT22;8192;53.596;10.166;2023-03-23T11:05:59;12.70;99.90
16172;DHT22;8192;53.596;10.166;2023-03-23T11:08:31;13.00;99.90
16172;DHT22;8192;53.596;10.166;2023-03-23T11:14:26;13.50;99.90
16172;DHT22;8192;53.596;10.166;2023-03-23T11:16:56;13.40;99.90
16172;DHT22;8192;53.596;10.166;2023-03-23T11:19:26;13.40;99.90
16172;DHT22;8192;53.596;10.166;2023-03-23T11:21:55;13.50;99.90
16172;DHT22;8192;53.596;10.166;2023-03-23T11:24:25;13.50;99.90
16172;DHT22;8192;53.596;10.166;2023-03-23T11:26:53;13.60;99.90
16172;DHT22;8192;53.596;10.166;2023-03-23T11:29:25;13.60;99.90
16172;DHT22;8192;53.596;10.166;2023-03-23T11:32:02;13.60;99.90
16172;DHT22;8192;53.596;10.166;2023-03-23T11:34:35;13.50;99.90
16172;DHT22;8192;53.596;10.166;2023-03-23T11:37:05;13.60;99.90
16172;DHT22;8192;53.596;10.166;2023-03-23T11:39:34;13.40;99.90
16172;DHT22;8192;53.596;10.166;2023-03-23T11:45:31;13.30;99.90
16172;DHT22;8192;53.596;10.166;2023-03-23T11:48:10;13.60;99.90
16172;DHT22;8192;53.596;10.166;2023-03-23T11:54:09;13.80;99.90
16172;DHT22;8192;53.596;10.166;2023-03-23T11:56:38;13.80;99.90
16172;DHT22;8192;53.596;10.166;2023-03-23T11:59:12;14.00;99.90
16172;DHT22;8192;53.596;10.166;2023-03-23T12:01:50;13.90;99.90
16172;DHT22;8192;53.596;10.166;2023-03-23T12:04:35;13.40;99.90
16172;DHT22;8192;53.596;10.166;2023-03-23T12:07:14;13.10;99.90
16172;DHT22;8192;53.596;10.166;2023-03-23T12:09:56;13.00;99.90
16172;DHT22;8192;53.596;10.166;2023-03-23T12:15:53;12.70;99.90
16172;DHT22;8192;53.596;10.166;2023-03-23T12:18:36;12.90;99.90
16172;DHT22;8192;53.596;10.166;2023-03-23T12:21:14;13.10;99.90
16172;DHT22;8192;53.596;10.166;2023-03-23T12:23:49;13.30;99.90
16172;DHT22;8192;53.596;10.166;2023-03-23T12:26:23;13.20;99.90
16172;DHT22;8192;53.596;10.166;2023-03-23T12:29:15;12.70;99.90
16172;DHT22;8192;53.596;10.166;2023-03-23T12:31:58;12.10;99.90
16172;DHT22;8192;53.596;10.166;2023-03-23T12:34:33;11.80;99.90
16172;DHT22;8192;53.596;10.166;2023-03-23T12:37:13;11.60;99.90
16172;DHT22;8192;53.596;10.166;2023-03-23T12:39:55;11.60;99.90
16172;DHT22;8192;53.596;10.166;2023-03-23T12:42:32;11.60;99.90
16172;DHT22;8192;53.596;10.166;2023-03-23T12:45:21;11.70;99.90
16172;DHT22;8192;53.596;10.166;2023-03-23T12:47:55;12.00;99.90
16172;DHT22;8192;53.596;10.166;2023-03-23T12:50:30;12.10;99.90
16172;DHT22;8192;53.596;10.166;2023-03-23T12:53:02;12.10;99.90
16172;DHT22;8192;53.596;10.166;2023-03-23T12:55:36;12.10;99.90
16172;DHT22;8192;53.596;10.166;2023-03-23T12:58:09;12.20;99.90
16172;DHT22;8192;53.596;10.166;2023-03-23T13:00:53;12.20;99.90
16172;DHT22;8192;53.596;10.166;2023-03-23T13:03:25;12.30;99.90
16172;DHT22;8192;53.596;10.166;2023-03-23T13:06:00;12.30;99.90
16172;DHT22;8192;53.596;10.166;2023-03-23T13:08:31;12.40;99.90
16172;DHT22;8192;53.596;10.166;2023-03-23T13:11:04;12.60;99.90
16172;DHT22;8192;53.596;10.166;2023-03-23T13:13:45;12.80;99.90
16172;DHT22;8192;53.596;10.166;2023-03-23T13:16:22;13.30;99.90
16172;DHT22;8192;53.596;10.166;2023-03-23T13:18:59;13.60;99.90
16172;DHT22;8192;53.596;10.166;2023-03-23T13:21:30;13.60;99.90
16172;DHT22;8192;53.596;10.166;2023-03-23T13:24:00;13.30;99.90
16172;DHT22;8192;53.596;10.166;2023-03-23T13:26:29;13.20;99.90
16172;DHT22;8192;53.596;10.166;2023-03-23T13:28:59;13.20;99.90
16172;DHT22;8192;53.596;10.166;2023-03-23T13:31:30;13.10;99.90
16172;DHT22;8192;53.596;10.166;2023-03-23T13:34:01;13.30;99.90
16172;DHT22;8192;53.596;10.166;2023-03-23T13:36:31;13.50;99.90
16172;DHT22;8192;53.596;10.166;2023-03-23T13:39:02;13.50;99.90
16172;DHT22;8192;53.596;10.166;2023-03-23T13:41:30;13.50;99.90
16172;DHT22;8192;53.596;10.166;2023-03-23T13:44:18;13.60;99.90
16172;DHT22;8192;53.596;10.166;2023-03-23T13:46:56;13.70;99.90
16172;DHT22;8192;53.596;10.166;2023-03-23T13:49:24;13.80;99.90
16172;DHT22;8192;53.596;10.166;2023-03-23T13:52:13;14.00;99.90
16172;DHT22;8192;53.596;10.166;2023-03-23T13:54:43;14.10;99.90
16172;DHT22;8192;53.596;10.166;2023-03-23T13:57:25;14.20;99.90
16172;DHT22;8192;53.596;10.166;2023-03-23T13:59:58;13.90;99.90
16172;DHT22;8192;53.596;10.166;2023-03-23T14:02:35;13.70;99.90
16172;DHT22;8192;53.596;10.166;2023-03-23T14:05:29;13.90;99.90
16172;DHT22;8192;53.596;10.166;2023-03-23T14:07:58;13.70;99.90
16172;DHT22;8192;53.596;10.166;2023-03-23T14:10:32;13.70;99.90
16172;DHT22;8192;53.596;10.166;2023-03-23T14:13:03;13.50;99.90
16172;DHT22;8192;53.596;10.166;2023-03-23T14:15:42;12.90;99.90
16172;DHT22;8192;53.596;10.166;2023-03-23T14:21:49;10.40;99.90
16172;DHT22;8192;53.596;10.166;2023-03-23T14:24:19;9.70;99.90
16172;DHT22;8192;53.596;10.166;2023-03-23T14:26:49;9.30;99.90
16172;DHT22;8192;53.596;10.166;2023-03-23T14:29:19;9.10;99.90
16172;DHT22;8192;53.596;10.166;2023-03-23T14:31:50;9.10;99.90
16172;DHT22;8192;53.596;10.166;2023-03-23T14:37:42;9.40;99.90
16172;DHT22;8192;53.596;10.166;2023-03-23T14:40:13;9.60;99.90
16172;DHT22;8192;53.596;10.166;2023-03-23T14:42:41;9.90;99.90
16172;DHT22;8192;53.596;10.166;2023-03-23T14:45:14;10.30;99.90
16172;DHT22;8192;53.596;10.166;2023-03-23T14:47:45;11.20;99.90
16172;DHT22;8192;53.596;10.166;2023-03-23T14:50:25;11.80;99.90
16172;DHT22;8192;53.596;10.166;2023-03-23T14:52:59;12.10;99.90
16172;DHT22;8192;53.596;10.166;2023-03-23T14:55:27;12.30;99.90
16172;DHT22;8192;53.596;10.166;2023-03-23T14:58:05;12.60;99.90
16172;DHT22;8192;53.596;10.166;2023-03-23T15:00:35;12.60;99.90
16172;DHT22;8192;53.596;10.166;2023-03-23T15:03:05;12.50;99.90
16172;DHT22;8192;53.596;10.166;2023-03-23T15:05:36;12.50;99.90
16172;DHT22;8192;53.596;10.166;2023-03-23T15:08:12;12.70;99.90
16172;DHT22;8192;53.596;10.166;2023-03-23T15:10:41;12.80;99.90
16172;DHT22;8192;53.596;10.166;2023-03-23T15:13:11;12.90;99.90
16172;DHT22;8192;53.596;10.166;2023-03-23T15:15:39;12.50;99.90
16172;DHT22;8192;53.596;10.166;2023-03-23T15:18:26;12.20;99.90
16172;DHT22;8192;53.596;10.166;2023-03-23T15:20:55;12.40;99.90
16172;DHT22;8192;53.596;10.166;2023-03-23T15:23:28;12.40;99.90
16172;DHT22;8192;53.596;10.166;2023-03-23T15:25:56;12.30;99.90
16172;DHT22;8192;53.596;10.166;2023-03-23T15:28:29;12.30;99.90
16172;DHT22;8192;53.596;10.166;2023-03-23T15:31:02;12.10;99.90
16172;DHT22;8192;53.596;10.166;2023-03-23T15:33:34;11.90;99.90
16172;DHT22;8192;53.596;10.166;2023-03-23T15:36:06;11.70;99.90
16172;DHT22;8192;53.596;10.166;2023-03-23T15:38:36;11.50;99.90
16172;DHT22;8192;53.596;10.166;2023-03-23T15:41:05;11.40;99.90
16172;DHT22;8192;53.596;10.166;2023-03-23T15:43:33;11.30;99.90
16172;DHT22;8192;53.596;10.166;2023-03-23T15:46:03;11.30;99.90
16172;DHT22;8192;53.596;10.166;2023-03-23T15:48:32;11.30;99.90
16172;DHT22;8192;53.596;10.166;2023-03-23T15:51:02;11.40;99.90
16172;DHT22;8192;53.596;10.166;2023-03-23T15:53:31;11.50;99.90
16172;DHT22;8192;53.596;10.166;2023-03-23T15:56:02;11.60;99.90
16172;DHT22;8192;53.596;10.166;2023-03-23T15:58:30;11.70;99.90
16172;DHT22;8192;53.596;10.166;2023-03-23T16:00:58;11.80;99.90
16172;DHT22;8192;53.596;10.166;2023-03-23T16:03:29;11.90;99.90
16172;DHT22;8192;53.596;10.166;2023-03-23T16:05:58;12.10;99.90
16172;DHT22;8192;53.596;10.166;2023-03-23T16:08:27;12.10;99.90
16172;DHT22;8192;53.596;10.166;2023-03-23T16:10:55;12.00;99.90
16172;DHT22;8192;53.596;10.166;2023-03-23T16:13:23;11.80;99.90
16172;DHT22;8192;53.596;10.166;2023-03-23T16:15:52;11.80;99.90
16172;DHT22;8192;53.596;10.166;2023-03-23T16:18:20;11.70;99.90
16172;DHT22;8192;53.596;10.166;2023-03-23T16:20:48;11.60;99.90
16172;DHT22;8192;53.596;10.166;2023-03-23T16:23:16;11.50;99.90
16172;DHT22;8192;53.596;10.166;2023-03-23T16:25:43;11.50;99.90
16172;DHT22;8192;53.596;10.166;2023-03-23T16:28:11;11.50;99.90
16172;DHT22;8192;53.596;10.166;2023-03-23T16:30:41;11.50;99.90
16172;DHT22;8192;53.596;10.166;2023-03-23T16:33:08;11.50;99.90
16172;DHT22;8192;53.596;10.166;2023-03-23T16:35:36;11.50;99.90
16172;DHT22;8192;53.596;10.166;2023-03-23T16:38:03;11.50;99.90
16172;DHT22;8192;53.596;10.166;2023-03-23T16:40:31;11.50;99.90
16172;DHT22;8192;53.596;10.166;2023-03-23T16:42:58;11.60;99.90
16172;DHT22;8192;53.596;10.166;2023-03-23T16:45:25;11.60;99.90
16172;DHT22;8192;53.596;10.166;2023-03-23T16:47:54;11.60;99.90
16172;DHT22;8192;53.596;10.166;2023-03-23T16:50:26;11.30;99.90
16172;DHT22;8192;53.596;10.166;2023-03-23T16:52:54;11.00;99.90
16172;DHT22;8192;53.596;10.166;2023-03-23T16:55:21;10.70;99.90